Time;durP1;ratioP1;P1;durP2;ratioP2;P2;SDS_P1;SDS_P2;PMS_P1;PMS_P2;Temp;Humidity;BMP_temperature;BMP_pressure;BME280_temperature;BME280_humidity;BME280_pressure;Samples;Min_cycle;Max_cycle;Signal;HPM_P1;HPM_P2
2023/01/24 00:00:19;;;;;;;18.90;11.20;;;;;;;2.38;89.46;102900.16;5012300;28;20229;-79
2023/01/24 00:02:47;;;;;;;15.85;11.40;;;;;;;2.38;89.69;102904.47;5008479;28;20042;-80
2023/01/24 00:05:13;;;;;;;18.10;11.95;;;;;;;2.39;89.67;102909.59;5006758;28;20354;-80
2023/01/24 00:07:40;;;;;;;17.20;11.77;;;;;;;2.41;89.69;102915.56;5005880;28;20209;-81
2023/01/24 00:10:08;;;;;;;14.80;11.18;;;;;;;2.38;89.39;102912.22;5008701;28;20056;-81
2023/01/24 00:12:35;;;;;;;16.67;11.88;;;;;;;2.33;90.23;102902.91;5010214;28;20038;-80
2023/01/24 00:15:01;;;;;;;17.98;10.70;;;;;;;2.29;90.04;102911.63;5011419;28;20491;-79
2023/01/24 00:17:28;;;;;;;16.92;11.68;;;;;;;2.33;89.28;102909.81;5010707;28;20128;-80
2023/01/24 00:19:56;;;;;;;16.13;11.60;;;;;;;2.33;89.70;102908.06;5011342;28;20085;-80
2023/01/24 00:22:23;;;;;;;16.60;11.30;;;;;;;2.31;89.87;102909.84;5023489;28;20128;-80
2023/01/24 00:24:49;;;;;;;16.00;11.57;;;;;;;2.30;89.56;102918.50;5011020;28;20145;-78
2023/01/24 00:27:16;;;;;;;14.90;11.18;;;;;;;2.37;90.04;102907.94;5010405;28;20475;-78
2023/01/24 00:29:45;;;;;;;16.63;11.23;;;;;;;2.31;90.11;102909.00;5017655;28;20077;-78
2023/01/24 00:32:11;;;;;;;17.05;12.48;;;;;;;2.28;89.40;102909.94;5021290;28;20049;-79
2023/01/24 00:34:38;;;;;;;17.83;12.35;;;;;;;2.29;89.83;102910.78;5014103;28;20053;-79
2023/01/24 00:37:06;;;;;;;17.00;12.70;;;;;;;2.32;89.84;102921.03;5015291;28;20133;-78
2023/01/24 00:39:33;;;;;;;16.15;11.50;;;;;;;2.31;89.88;102920.19;5015612;28;20129;-79
2023/01/24 00:41:59;;;;;;;15.60;11.40;;;;;;;2.30;90.09;102925.41;5031232;28;20050;-79
2023/01/24 00:44:26;;;;;;;14.95;10.57;;;;;;;2.33;89.88;102923.56;5008261;28;20093;-78
2023/01/24 00:46:53;;;;;;;12.40;9.55;;;;;;;2.33;89.97;102918.41;5018981;28;20077;-78
2023/01/24 00:49:21;;;;;;;15.07;10.73;;;;;;;2.32;89.71;102927.06;5019908;28;20133;-79
2023/01/24 00:51:48;;;;;;;13.55;10.82;;;;;;;2.32;89.39;102924.47;5040270;28;20050;-80
2023/01/24 00:55:06;;;;;;;15.38;10.93;;;;;;;2.32;89.70;102919.31;5022205;28;20136;-80
2023/01/24 01:03:44;;;;;;;15.50;11.02;;;;;;;2.32;89.65;102921.88;5021132;28;20079;-80
2023/01/24 01:06:34;;;;;;;16.55;11.57;;;;;;;2.25;89.68;102911.78;5014650;28;20047;-80
2023/01/24 01:09:16;;;;;;;16.38;12.23;;;;;;;2.08;90.05;102890.78;5001152;28;20058;-80
2023/01/24 01:18:45;;;;;;;15.90;12.13;;;;;;;2.10;89.83;102882.09;5018395;28;20064;-80
2023/01/24 01:21:25;;;;;;;16.58;11.93;;;;;;;2.11;90.24;102882.94;5014646;28;20096;-80
2023/01/24 01:24:28;;;;;;;18.98;12.32;;;;;;;2.18;90.67;102903.38;5028724;28;20062;-80
2023/01/24 01:27:17;;;;;;;17.20;12.47;;;;;;;2.25;91.32;102919.53;5022230;28;20045;-80
2023/01/24 01:29:45;;;;;;;19.58;12.98;;;;;;;2.25;91.53;102910.03;5063587;23;20060;-80
2023/01/24 01:32:13;;;;;;;20.40;13.40;;;;;;;2.28;92.03;102919.44;5043846;28;20041;-79
2023/01/24 01:34:40;;;;;;;18.27;13.38;;;;;;;2.16;92.17;102920.66;5052272;28;20080;-80
2023/01/24 01:37:07;;;;;;;19.08;13.98;;;;;;;2.11;92.39;102906.19;5039272;28;20049;-78
2023/01/24 01:39:34;;;;;;;19.35;12.82;;;;;;;2.18;92.47;102918.88;5051771;28;20079;-79
2023/01/24 01:42:00;;;;;;;19.65;13.43;;;;;;;2.26;92.80;102916.91;5049858;28;20041;-79
2023/01/24 01:44:47;;;;;;;18.95;12.82;;;;;;;2.19;92.92;102923.13;5046809;28;20061;-79
2023/01/24 01:47:24;;;;;;;17.25;12.35;;;;;;;2.15;92.53;102924.13;5038579;28;20104;-79
2023/01/24 01:49:56;;;;;;;17.10;12.00;;;;;;;2.17;92.72;102932.69;5051767;28;20127;-79
2023/01/24 01:52:25;;;;;;;19.30;13.18;;;;;;;2.17;92.45;102931.81;5032138;28;20128;-80
2023/01/24 01:54:54;;;;;;;18.98;12.93;;;;;;;2.17;92.91;102937.00;5038391;28;20117;-80
2023/01/24 01:57:24;;;;;;;18.38;13.05;;;;;;;2.16;92.85;102936.16;5038098;28;20580;-80
2023/01/24 01:59:53;;;;;;;20.27;13.63;;;;;;;2.11;93.18;102930.28;5037268;28;20128;-79
2023/01/24 02:02:23;;;;;;;18.35;13.40;;;;;;;2.10;93.38;102938.91;5036751;28;20125;-79
2023/01/24 02:04:56;;;;;;;18.55;13.80;;;;;;;2.10;93.16;102946.66;5037338;28;20045;-79
2023/01/24 02:07:27;;;;;;;20.67;12.93;;;;;;;2.16;93.12;102933.56;5042992;28;20168;-79
2023/01/24 02:09:55;;;;;;;17.48;12.98;;;;;;;2.15;92.93;102931.03;5043749;28;20084;-79
2023/01/24 02:12:25;;;;;;;16.73;12.07;;;;;;;2.15;92.64;102931.03;5038044;28;20125;-80
2023/01/24 02:17:41;;;;;;;17.52;12.73;;;;;;;2.16;93.01;102928.41;5044824;28;20127;-79
2023/01/24 02:20:19;;;;;;;18.02;12.27;;;;;;;2.06;92.89;102926.97;5037024;28;20132;-80
2023/01/24 02:22:56;;;;;;;18.40;13.13;;;;;;;2.12;93.14;102928.53;5036962;28;20073;-79
2023/01/24 02:25:31;;;;;;;17.17;12.43;;;;;;;2.11;92.71;102929.41;5042222;28;20051;-79
2023/01/24 02:28:02;;;;;;;19.05;12.90;;;;;;;2.09;93.17;102926.88;5042083;28;20088;-79
2023/01/24 02:30:28;;;;;;;18.05;12.82;;;;;;;2.08;93.07;102927.78;5042042;28;20089;-80
2023/01/24 02:32:55;;;;;;;17.58;12.57;;;;;;;2.05;93.11;102933.03;5041854;28;20100;-79
2023/01/24 02:35:24;;;;;;;16.92;12.52;;;;;;;2.02;92.94;102929.69;5041414;28;20109;-80
2023/01/24 02:37:51;;;;;;;19.15;12.38;;;;;;;2.04;93.20;102931.34;5040625;28;20118;-80
2023/01/24 02:40:18;;;;;;;18.25;13.18;;;;;;;2.05;93.06;102927.88;5042444;28;20112;-79
2023/01/24 02:42:46;;;;;;;19.35;13.73;;;;;;;1.98;92.82;102926.34;5044117;28;20107;-79
2023/01/24 02:45:19;;;;;;;18.52;13.80;;;;;;;2.00;92.66;102924.56;5043615;28;20073;-78
2023/01/24 02:47:48;;;;;;;19.10;13.93;;;;;;;2.01;92.77;102915.94;5040111;28;20176;-78
2023/01/24 02:50:15;;;;;;;20.95;13.90;;;;;;;2.01;92.79;102913.34;5039379;28;20123;-79
2023/01/24 02:55:22;;;;;;;19.92;14.05;;;;;;;2.06;92.81;102914.06;5016391;28;20156;-79
2023/01/24 02:58:06;;;;;;;18.95;13.02;;;;;;;2.07;92.42;102908.00;5038456;28;20129;-79
2023/01/24 03:00:34;;;;;;;19.73;12.57;;;;;;;2.07;92.22;102913.16;5039934;28;20115;-79
2023/01/24 03:03:02;;;;;;;20.33;13.80;;;;;;;2.05;92.26;102907.19;5043250;28;20045;-80
2023/01/24 03:05:39;;;;;;;19.25;13.77;;;;;;;2.03;91.93;102908.97;5038751;28;20095;-80
2023/01/24 03:08:07;;;;;;;19.85;13.15;;;;;;;2.07;92.26;102907.16;5039043;28;20049;-80
2023/01/24 03:10:35;;;;;;;17.75;13.45;;;;;;;2.02;92.28;102912.47;5038479;28;20530;-81
2023/01/24 03:34:56;;;;;;;18.30;12.95;;;;;;;1.95;91.89;102903.19;5041704;28;20057;-80
2023/01/24 03:40:09;;;;;;;17.40;12.52;;;;;;;1.92;91.79;102898.13;5038757;28;20053;-80
2023/01/24 03:42:46;;;;;;;18.50;12.65;;;;;;;1.87;91.86;102900.03;5039245;28;20073;-80
2023/01/24 03:45:15;;;;;;;20.27;13.00;;;;;;;1.96;91.57;102899.72;5023819;28;20053;-79
2023/01/24 03:47:54;;;;;;;19.35;13.20;;;;;;;1.91;91.98;102906.75;5040341;28;20053;-82
2023/01/24 03:53:06;;;;;;;16.60;12.38;;;;;;;1.89;91.95;102905.97;5039947;28;20095;-80
2023/01/24 03:55:33;;;;;;;18.58;12.93;;;;;;;1.90;91.86;102897.31;5040058;28;20068;-80
2023/01/24 03:58:00;;;;;;;18.63;12.85;;;;;;;1.94;91.87;102904.09;5040651;28;20104;-80
2023/01/24 04:00:26;;;;;;;18.67;13.30;;;;;;;1.90;91.93;102905.91;5042391;28;20092;-80
2023/01/24 04:02:55;;;;;;;18.63;13.60;;;;;;;1.90;92.04;102892.16;5040907;28;20105;-80
2023/01/24 04:05:22;;;;;;;20.73;13.55;;;;;;;1.88;91.77;102905.13;5039789;28;20129;-80
2023/01/24 04:07:48;;;;;;;20.73;13.77;;;;;;;1.86;91.93;102895.75;5039540;28;20089;-80
2023/01/24 04:10:15;;;;;;;21.30;14.35;;;;;;;1.85;91.91;102906.97;5040117;28;20151;-80
2023/01/24 04:12:43;;;;;;;19.58;13.48;;;;;;;1.84;91.56;102903.53;5038960;28;20073;-80
2023/01/24 04:15:16;;;;;;;18.92;13.30;;;;;;;1.82;91.73;102899.31;5030913;28;20125;-80
2023/01/24 04:17:42;;;;;;;16.52;11.95;;;;;;;1.86;91.23;102906.06;5023663;28;20063;-80
2023/01/24 04:20:11;;;;;;;20.15;12.40;;;;;;;1.81;90.81;102897.63;5031673;28;20132;-80
2023/01/24 04:22:38;;;;;;;18.58;13.10;;;;;;;1.78;91.27;102903.72;5041001;28;20444;-80
2023/01/24 04:25:05;;;;;;;19.23;12.93;;;;;;;1.79;91.62;102905.41;5043579;28;20077;-79
2023/01/24 04:27:32;;;;;;;18.17;13.02;;;;;;;1.73;91.85;102905.56;5042693;28;20129;-80
2023/01/24 04:29:59;;;;;;;19.98;13.43;;;;;;;1.71;91.90;102907.34;5042640;28;20619;-80
2023/01/24 04:32:25;;;;;;;18.02;12.82;;;;;;;1.75;92.07;102914.13;5042619;28;20124;-80
2023/01/24 04:34:52;;;;;;;18.80;12.63;;;;;;;1.75;91.66;102908.09;5042300;28;20140;-80
2023/01/24 04:37:20;;;;;;;17.58;12.00;;;;;;;1.77;91.16;102904.59;5042467;28;20132;-80
2023/01/24 04:39:46;;;;;;;17.08;11.95;;;;;;;1.72;91.21;102903.03;5043634;28;20507;-81
2023/01/24 04:42:13;;;;;;;18.83;12.73;;;;;;;1.75;90.99;102902.94;5042922;28;20068;-79
2023/01/24 04:44:40;;;;;;;17.30;11.93;;;;;;;1.79;91.41;102907.13;5043574;28;20436;-81
2023/01/24 04:47:06;;;;;;;22.63;13.00;;;;;;;1.74;91.22;102909.84;5041813;28;20132;-79
2023/01/24 04:49:33;;;;;;;18.67;12.40;;;;;;;1.69;91.11;102909.13;5042469;28;20073;-80
2023/01/24 04:51:59;;;;;;;18.00;13.05;;;;;;;1.71;91.18;102896.19;5043294;28;20416;-80
2023/01/24 04:54:27;;;;;;;18.85;12.35;;;;;;;1.69;91.28;102903.13;5044316;28;20490;-80
2023/01/24 04:56:54;;;;;;;18.42;11.90;;;;;;;1.71;91.22;102897.03;5042809;28;20109;-80
2023/01/24 04:59:21;;;;;;;18.38;12.35;;;;;;;1.66;91.09;102907.47;5041859;28;20061;-80
2023/01/24 05:01:47;;;;;;;17.45;11.60;;;;;;;1.55;91.03;102900.91;5042987;28;20136;-79
2023/01/24 05:04:15;;;;;;;17.25;12.07;;;;;;;1.52;90.99;102895.84;5042132;28;20088;-81
2023/01/24 05:06:42;;;;;;;19.80;13.05;;;;;;;1.51;90.50;102896.72;5044770;28;20053;-80
2023/01/24 05:09:08;;;;;;;19.10;12.43;;;;;;;1.60;91.09;102897.31;5047218;28;20192;-79
2023/01/24 05:11:37;;;;;;;19.23;12.80;;;;;;;1.55;90.90;102899.19;5045682;28;20105;-79
2023/01/24 05:14:04;;;;;;;20.55;13.23;;;;;;;1.66;90.50;102904.91;5043910;28;20095;-79
2023/01/24 05:16:31;;;;;;;21.23;13.30;;;;;;;1.59;90.60;102898.22;5047712;28;20095;-79
2023/01/24 05:18:57;;;;;;;18.92;12.32;;;;;;;1.62;90.92;102900.72;5043395;28;20128;-80
2023/01/24 05:21:24;;;;;;;18.63;12.40;;;;;;;1.62;90.59;102907.59;5041496;28;20155;-79
2023/01/24 05:23:52;;;;;;;18.70;12.80;;;;;;;1.63;90.45;102910.13;5048420;28;20105;-79
2023/01/24 05:26:19;;;;;;;20.70;13.80;;;;;;;1.62;90.38;102913.63;5042553;28;20085;-79
2023/01/24 05:28:47;;;;;;;17.60;12.55;;;;;;;1.61;90.63;102901.59;5044160;28;20068;-79
2023/01/24 05:31:13;;;;;;;17.40;12.10;;;;;;;1.59;90.24;102902.53;5052471;28;20084;-79
2023/01/24 05:33:41;;;;;;;19.83;13.07;;;;;;;1.49;90.24;102896.78;5049085;28;20133;-79
2023/01/24 05:36:11;;;;;;;18.13;12.82;;;;;;;1.48;90.66;102905.41;5043016;28;20053;-79
2023/01/24 05:38:38;;;;;;;21.65;13.40;;;;;;;1.44;90.43;102908.09;5043227;28;20551;-79
2023/01/24 05:41:07;;;;;;;17.70;12.48;;;;;;;1.42;90.63;102905.56;5042183;28;20128;-79
2023/01/24 05:43:34;;;;;;;21.13;13.30;;;;;;;1.37;90.30;102904.88;5041763;28;20581;-79
2023/01/24 05:46:03;;;;;;;18.77;12.90;;;;;;;1.37;90.46;102914.34;5042345;28;20053;-79
2023/01/24 05:48:30;;;;;;;18.83;12.50;;;;;;;1.38;90.43;102914.31;5040952;28;20049;-79
2023/01/24 05:50:58;;;;;;;20.88;13.02;;;;;;;1.36;90.55;102908.34;5041456;28;20104;-79
2023/01/24 05:53:27;;;;;;;19.52;12.52;;;;;;;1.40;90.65;102920.28;5044424;28;20049;-79
2023/01/24 05:55:57;;;;;;;21.98;12.90;;;;;;;1.39;90.34;102923.72;5043952;28;20562;-79
2023/01/24 05:58:24;;;;;;;22.20;13.20;;;;;;;1.38;90.58;102924.63;5042840;28;20132;-78
2023/01/24 06:00:51;;;;;;;20.33;13.25;;;;;;;1.45;90.65;102931.28;5040577;28;20132;-78
2023/01/24 06:03:19;;;;;;;16.75;11.48;;;;;;;1.42;90.60;102923.63;5042713;28;20471;-81
2023/01/24 06:05:47;;;;;;;18.55;12.43;;;;;;;1.35;90.26;102929.84;5041858;28;20118;-80
2023/01/24 06:08:14;;;;;;;18.10;12.23;;;;;;;1.43;90.35;102934.78;5042626;28;20054;-80
2023/01/24 06:10:41;;;;;;;19.73;12.38;;;;;;;1.36;90.43;102931.56;5042259;28;20053;-79
2023/01/24 06:13:07;;;;;;;16.77;12.18;;;;;;;1.40;90.27;102935.75;5040682;28;20076;-79
2023/01/24 06:15:34;;;;;;;17.92;12.18;;;;;;;1.41;90.52;102932.28;5041763;28;20104;-79
2023/01/24 06:18:00;;;;;;;17.50;11.90;;;;;;;1.41;90.28;102950.34;5042981;28;20057;-79
2023/01/24 06:20:29;;;;;;;18.45;12.32;;;;;;;1.44;90.15;102947.66;5042904;28;20140;-78
2023/01/24 06:23:01;;;;;;;17.55;12.13;;;;;;;1.46;90.26;102948.44;5043378;28;20499;-79
2023/01/24 06:25:28;;;;;;;18.33;12.65;;;;;;;1.49;89.84;102948.38;5042682;28;20133;-80
2023/01/24 06:27:55;;;;;;;18.80;12.48;;;;;;;1.50;89.84;102949.22;5042594;28;20084;-80
2023/01/24 06:30:22;;;;;;;19.98;12.57;;;;;;;1.45;89.95;102956.22;5042911;28;20121;-79
2023/01/24 06:33:07;;;;;;;18.38;12.85;;;;;;;1.53;89.96;102954.31;5044142;28;20128;-79
2023/01/24 06:35:40;;;;;;;19.42;12.55;;;;;;;1.48;90.06;102957.00;5042815;28;20116;-79
2023/01/24 06:38:19;;;;;;;17.48;12.20;;;;;;;1.48;89.97;102956.16;5043312;28;20114;-79
2023/01/24 06:40:45;;;;;;;17.40;12.18;;;;;;;1.53;90.25;102962.88;5043389;28;20056;-79
2023/01/24 06:43:13;;;;;;;19.42;12.30;;;;;;;1.56;90.17;102962.81;5044835;28;20124;-80
2023/01/24 06:45:39;;;;;;;17.52;12.77;;;;;;;1.50;90.29;102965.53;5046124;28;20084;-79
2023/01/24 06:48:06;;;;;;;18.15;12.05;;;;;;;1.49;90.46;102963.84;5045561;28;20061;-78
2023/01/24 06:50:34;;;;;;;17.77;12.50;;;;;;;1.52;90.42;102963.78;5046015;28;20088;-78
2023/01/24 06:53:02;;;;;;;18.63;12.23;;;;;;;1.54;90.55;102967.16;5046479;28;20076;-79
2023/01/24 06:55:28;;;;;;;18.50;13.50;;;;;;;1.56;90.97;102970.56;5045806;28;20053;-81
2023/01/24 06:57:56;;;;;;;20.80;12.35;;;;;;;1.52;90.61;102976.69;5043773;28;20109;-80
2023/01/24 07:00:22;;;;;;;22.40;12.48;;;;;;;1.49;90.78;102970.75;5045217;28;20140;-81
2023/01/24 07:02:56;;;;;;;18.00;11.63;;;;;;;1.49;90.99;102979.34;5038021;28;20077;-80
2023/01/24 07:05:23;;;;;;;17.45;11.27;;;;;;;1.51;90.98;102987.03;5045224;28;20117;-80
2023/01/24 07:07:50;;;;;;;19.35;12.65;;;;;;;1.46;90.75;102983.72;5045476;28;20084;-80
2023/01/24 07:10:18;;;;;;;17.65;12.02;;;;;;;1.44;90.98;102985.50;5046431;28;20060;-81
2023/01/24 07:12:45;;;;;;;19.33;12.52;;;;;;;1.49;91.04;102984.50;5047303;28;20076;-81
2023/01/24 07:15:11;;;;;;;18.33;12.00;;;;;;;1.46;91.16;103000.06;5044185;28;20049;-79
2023/01/24 07:17:38;;;;;;;17.70;11.60;;;;;;;1.49;91.47;102987.06;5043566;28;20112;-81
2023/01/24 07:20:07;;;;;;;18.67;12.27;;;;;;;1.49;91.23;102992.22;5052264;28;20079;-80
2023/01/24 07:22:40;;;;;;;17.15;11.90;;;;;;;1.50;91.18;102978.44;5054273;28;20084;-81
2023/01/24 07:25:15;;;;;;;17.02;11.85;;;;;;;1.48;90.80;102989.69;5050569;28;20153;-80
2023/01/24 07:27:52;;;;;;;17.15;10.88;;;;;;;1.43;90.74;102984.66;5044785;28;20049;-82
2023/01/24 07:30:22;;;;;;;16.67;11.52;;;;;;;1.43;90.77;102984.66;5045796;28;20057;-81
2023/01/24 07:32:51;;;;;;;17.60;11.95;;;;;;;1.42;90.50;102990.69;5044739;28;20088;-81
2023/01/24 07:35:20;;;;;;;17.38;12.02;;;;;;;1.50;90.51;103005.97;5038083;28;20058;-81
2023/01/24 07:37:47;;;;;;;17.75;12.23;;;;;;;1.29;90.27;102987.59;5041643;28;20061;-79
2023/01/24 07:40:14;;;;;;;17.05;11.95;;;;;;;1.46;90.20;103012.94;5044976;28;20486;-82
2023/01/24 07:42:41;;;;;;;18.05;12.13;;;;;;;1.42;90.50;102998.44;5041880;28;20049;-80
2023/01/24 07:45:09;;;;;;;17.27;12.32;;;;;;;1.41;89.98;103012.25;5036557;28;20069;-79
2023/01/24 07:47:37;;;;;;;18.23;12.20;;;;;;;1.58;90.28;103025.53;5035328;28;20129;-81
2023/01/24 07:50:14;;;;;;;16.40;11.60;;;;;;;1.50;90.22;103032.63;5038064;28;20617;-80
2023/01/24 07:52:41;;;;;;;18.50;12.27;;;;;;;1.42;90.33;103011.34;5033616;28;20446;-80
2023/01/24 07:55:09;;;;;;;18.95;12.65;;;;;;;1.37;90.16;103013.22;5041356;28;20530;-81
2023/01/24 07:57:37;;;;;;;16.48;11.48;;;;;;;1.42;90.23;103034.56;5041915;28;20419;-80
2023/01/24 08:00:05;;;;;;;18.35;12.32;;;;;;;1.31;90.26;103010.78;5033463;28;20079;-79
2023/01/24 08:02:34;;;;;;;17.05;12.70;;;;;;;1.42;90.12;103029.41;5043410;28;20516;-80
2023/01/24 08:05:03;;;;;;;18.45;12.35;;;;;;;1.33;90.36;103009.03;5043909;28;20108;-80
2023/01/24 08:07:35;;;;;;;17.75;12.40;;;;;;;1.46;90.41;103027.59;5043703;28;20046;-80
2023/01/24 08:12:35;;;;;;;21.45;12.57;;;;;;;1.37;89.68;103022.69;5059589;28;20044;-81
2023/01/24 08:15:02;;;;;;;18.25;12.40;;;;;;;1.51;90.27;103036.91;5045839;28;20098;-80
2023/01/24 08:17:31;;;;;;;19.30;12.27;;;;;;;1.46;89.99;103025.00;5063799;28;20055;-80
2023/01/24 08:20:01;;;;;;;19.02;12.90;;;;;;;1.51;90.43;103039.50;5064152;28;20099;-79
2023/01/24 08:22:34;;;;;;;18.52;12.48;;;;;;;1.42;89.96;103031.16;5066434;28;20515;-79
2023/01/24 08:25:01;;;;;;;19.50;12.77;;;;;;;1.35;89.87;103019.28;5063774;28;20048;-78
2023/01/24 08:27:27;;;;;;;18.60;12.45;;;;;;;1.58;90.23;103037.59;5061317;28;20099;-78
2023/01/24 08:29:54;;;;;;;17.83;12.75;;;;;;;1.55;89.97;103040.25;5061372;28;20061;-79
2023/01/24 08:32:21;;;;;;;17.05;11.82;;;;;;;1.49;89.76;103050.72;5053473;28;20079;-80
2023/01/24 08:34:48;;;;;;;18.77;13.13;;;;;;;1.43;90.20;103051.72;5059818;28;20511;-79
2023/01/24 08:37:17;;;;;;;18.20;12.18;;;;;;;1.47;89.69;103058.50;5066009;28;20072;-79
2023/01/24 08:39:44;;;;;;;16.35;11.68;;;;;;;1.44;89.55;103027.63;5063062;28;20049;-80
2023/01/24 08:42:11;;;;;;;14.82;10.85;;;;;;;1.42;89.36;103033.75;5060112;28;20053;-79
2023/01/24 08:44:43;;;;;;;16.70;11.73;;;;;;;1.33;89.60;103050.28;5064600;28;20061;-80
2023/01/24 08:47:10;;;;;;;16.23;11.65;;;;;;;1.28;89.71;103044.41;5046829;28;20060;-80
2023/01/24 08:49:37;;;;;;;18.13;12.25;;;;;;;1.31;89.49;103031.41;5057080;28;20079;-78
2023/01/24 08:52:04;;;;;;;16.58;11.93;;;;;;;1.44;89.82;103037.94;5060693;28;20080;-79
2023/01/24 08:54:34;;;;;;;17.20;11.85;;;;;;;1.61;89.54;103066.75;5060961;28;20064;-79
2023/01/24 08:57:08;;;;;;;17.35;12.27;;;;;;;1.71;89.42;103069.97;5061175;28;20055;-79
2023/01/24 08:59:37;;;;;;;20.05;12.55;;;;;;;1.61;89.30;103066.75;5061773;28;20084;-78
2023/01/24 09:02:05;;;;;;;17.38;12.60;;;;;;;1.57;89.09;103057.41;5060731;28;20084;-78
2023/01/24 09:04:32;;;;;;;17.90;12.55;;;;;;;1.68;89.11;103064.88;5059333;28;20049;-79
2023/01/24 09:06:59;;;;;;;16.58;12.63;;;;;;;1.51;89.20;103062.72;5060250;28;20045;-79
2023/01/24 09:09:25;;;;;;;19.92;12.25;;;;;;;1.59;89.11;103075.44;5058380;28;20052;-80
2023/01/24 09:11:54;;;;;;;17.58;13.38;;;;;;;1.63;89.08;103070.16;5060176;28;20507;-78
2023/01/24 09:14:21;;;;;;;17.05;12.35;;;;;;;1.59;88.88;103071.13;5060790;28;20102;-79
2023/01/24 09:16:47;;;;;;;18.20;12.82;;;;;;;1.44;89.28;103053.44;5055641;28;20128;-80
2023/01/24 09:19:20;;;;;;;19.05;12.70;;;;;;;1.65;89.19;103078.69;5058913;28;20079;-79
2023/01/24 09:21:51;;;;;;;17.23;12.80;;;;;;;1.62;89.40;103076.19;5057523;28;20084;-79
2023/01/24 09:24:18;;;;;;;17.85;12.80;;;;;;;1.66;89.55;103059.75;5058617;28;20060;-79
2023/01/24 09:26:46;;;;;;;16.13;12.20;;;;;;;1.64;88.74;103064.09;5060598;28;20517;-80
2023/01/24 09:29:14;;;;;;;17.05;12.50;;;;;;;1.84;88.47;103079.09;5059241;28;20053;-79
2023/01/24 09:31:41;;;;;;;17.08;12.55;;;;;;;1.78;88.72;103074.09;5059939;28;20139;-79
2023/01/24 09:34:07;;;;;;;15.93;12.18;;;;;;;1.91;88.67;103080.59;5059229;28;20467;-80
2023/01/24 09:36:34;;;;;;;18.13;12.60;;;;;;;1.87;88.72;103081.59;5060556;28;20057;-80
2023/01/24 09:41:58;;;;;;;17.98;12.27;;;;;;;1.99;88.35;103077.81;5058310;28;20053;-79
2023/01/24 09:47:59;;;;;;;16.92;13.05;;;;;;;1.89;88.20;103081.56;5051454;28;20060;-80
2023/01/24 09:50:36;;;;;;;14.95;11.45;;;;;;;1.79;87.94;103067.19;5039932;28;20044;-79
2023/01/24 09:53:15;;;;;;;17.45;13.35;;;;;;;1.86;88.36;103066.13;5055624;28;20072;-80
2023/01/24 09:55:43;;;;;;;17.55;12.77;;;;;;;1.83;88.28;103071.38;5059921;28;20110;-78
2023/01/24 09:58:31;;;;;;;16.90;12.38;;;;;;;1.94;88.29;103079.66;5059238;28;20187;-78
2023/01/24 10:01:01;;;;;;;16.52;12.68;;;;;;;1.90;88.39;103088.38;5057679;28;20048;-80
2023/01/24 10:03:29;;;;;;;15.30;11.93;;;;;;;2.00;87.80;103090.69;5059605;28;20061;-79
2023/01/24 10:05:58;;;;;;;15.55;12.02;;;;;;;2.04;88.04;103095.75;5057732;28;20082;-79
2023/01/24 10:08:32;;;;;;;16.70;11.98;;;;;;;1.89;88.04;103102.22;5057394;28;20140;-80
2023/01/24 10:11:07;;;;;;;15.63;11.38;;;;;;;1.95;87.98;103091.69;5058447;28;20112;-80
2023/01/24 10:14:12;;;;;;;17.60;12.32;;;;;;;1.96;87.89;103098.53;5058214;28;20104;-80
2023/01/24 10:17:13;;;;;;;17.13;12.52;;;;;;;1.97;87.98;103095.06;5049301;28;20112;-79
2023/01/24 10:20:06;;;;;;;17.63;11.35;;;;;;;1.94;87.96;103093.44;5042927;28;20128;-80
2023/01/24 10:22:50;;;;;;;16.50;12.40;;;;;;;2.06;88.01;103087.09;5045255;28;20045;-80
2023/01/24 10:25:23;;;;;;;16.65;12.38;;;;;;;2.05;88.18;103093.16;5050130;28;20051;-81
2023/01/24 10:27:54;;;;;;;18.38;12.32;;;;;;;1.96;88.49;103095.97;5058315;28;20414;-80
2023/01/24 10:30:25;;;;;;;18.13;12.48;;;;;;;1.85;88.40;103090.25;5059148;28;20060;-80
2023/01/24 10:32:59;;;;;;;17.60;12.60;;;;;;;2.04;88.26;103090.59;5058627;28;20257;-80
2023/01/24 10:35:31;;;;;;;18.17;12.23;;;;;;;2.15;88.25;103084.25;5058397;28;20132;-80
2023/01/24 10:38:01;;;;;;;16.60;10.17;;;;;;;1.99;88.42;103091.56;5058779;28;20131;-80
2023/01/24 10:40:27;;;;;;;16.63;12.60;;;;;;;2.00;88.47;103087.25;5058465;28;20297;-81
2023/01/24 10:42:54;;;;;;;16.33;12.45;;;;;;;1.96;88.66;103085.63;5058498;28;20147;-80
2023/01/24 10:45:48;;;;;;;18.08;11.88;;;;;;;2.06;88.89;103083.66;5057315;28;20045;-80
2023/01/24 10:48:28;;;;;;;18.35;12.55;;;;;;;2.08;88.72;103089.63;5039154;28;20390;-80
2023/01/24 10:50:54;;;;;;;20.80;11.88;;;;;;;2.14;88.84;103080.00;5055531;28;20128;-77
2023/01/24 10:53:24;;;;;;;19.33;13.05;;;;;;;2.14;88.96;103071.41;5058554;28;20116;-79
2023/01/24 10:55:59;;;;;;;16.45;12.25;;;;;;;2.26;88.42;103077.06;5057823;28;20041;-79
2023/01/24 10:58:27;;;;;;;15.75;11.88;;;;;;;2.34;87.92;103076.88;5059534;28;20088;-78
2023/01/24 11:00:58;;;;;;;18.48;12.60;;;;;;;2.23;87.83;103082.31;5058311;28;20085;-79
2023/01/24 11:03:28;;;;;;;17.38;12.82;;;;;;;2.28;88.01;103070.13;5057359;28;20049;-80
2023/01/24 11:05:57;;;;;;;15.82;11.65;;;;;;;2.14;88.31;103074.81;5057976;28;20069;-78
2023/01/24 11:08:25;;;;;;;16.58;12.82;;;;;;;2.28;87.99;103075.28;5057812;28;20045;-79
2023/01/24 11:10:54;;;;;;;14.02;11.35;;;;;;;2.32;87.50;103076.06;5057830;28;20053;-80
2023/01/24 11:13:35;;;;;;;17.50;12.30;;;;;;;2.27;87.57;103065.00;5058115;28;20084;-81
2023/01/24 11:16:03;;;;;;;15.18;11.93;;;;;;;2.29;87.56;103065.81;5059552;28;20081;-80
2023/01/24 11:18:33;;;;;;;15.15;12.23;;;;;;;2.30;88.02;103067.50;5058183;28;20081;-79
2023/01/24 11:21:13;;;;;;;18.10;12.10;;;;;;;2.14;87.63;103064.50;5058551;28;20388;-79
2023/01/24 11:23:41;;;;;;;16.55;11.63;;;;;;;2.31;87.56;103070.03;5059179;28;20049;-80
2023/01/24 11:26:22;;;;;;;17.55;11.85;;;;;;;2.30;87.41;103059.75;5059017;28;20482;-80
2023/01/24 11:28:58;;;;;;;15.48;11.90;;;;;;;2.39;86.85;103066.38;5059841;28;20135;-78
2023/01/24 11:31:30;;;;;;;15.15;11.88;;;;;;;2.18;87.09;103068.69;5060164;28;20059;-79
2023/01/24 11:34:16;;;;;;;18.20;12.57;;;;;;;2.32;87.05;103056.22;5064590;28;20490;-80
2023/01/24 11:36:48;;;;;;;15.15;11.18;;;;;;;2.27;86.97;103052.94;5063099;28;20112;-80
2023/01/24 11:39:23;;;;;;;16.90;12.13;;;;;;;2.44;87.22;103056.75;5061956;28;20136;-80
2023/01/24 11:41:57;;;;;;;18.75;11.45;;;;;;;2.46;86.94;103052.38;5063550;28;20152;-80
2023/01/24 11:44:46;;;;;;;15.10;11.57;;;;;;;2.26;87.01;103046.06;5060695;28;20132;-78
2023/01/24 11:47:18;;;;;;;14.80;11.68;;;;;;;2.24;86.86;103045.25;5062297;28;20510;-80
2023/01/24 11:50:10;;;;;;;18.27;11.55;;;;;;;2.26;87.16;103055.56;5062548;28;20077;-80
2023/01/24 11:53:08;;;;;;;15.40;11.48;;;;;;;2.32;86.95;103045.06;5063309;28;20110;-79
2023/01/24 11:55:47;;;;;;;15.40;11.25;;;;;;;2.32;86.99;103040.72;5048657;28;20045;-79
2023/01/24 11:58:39;;;;;;;14.75;10.35;;;;;;;2.39;86.79;103035.34;5046732;28;20064;-80
2023/01/24 12:01:13;;;;;;;14.20;10.60;;;;;;;2.28;86.39;103039.13;5063816;28;20455;-80
2023/01/24 12:03:55;;;;;;;14.85;11.38;;;;;;;2.35;86.40;103028.63;5063089;28;20116;-80
2023/01/24 12:06:34;;;;;;;13.90;10.68;;;;;;;2.29;86.80;103033.06;5046125;28;20128;-79
2023/01/24 12:09:14;;;;;;;14.55;11.27;;;;;;;2.36;87.02;103038.06;5063525;28;20048;-80
2023/01/24 12:11:45;;;;;;;16.80;12.57;;;;;;;2.47;86.87;103035.97;5064592;28;20489;-78
2023/01/24 12:14:34;;;;;;;17.05;11.77;;;;;;;2.36;86.30;103020.81;5051676;28;20102;-79
2023/01/24 12:17:10;;;;;;;18.38;12.35;;;;;;;2.35;86.52;103024.28;5059521;28;20136;-79
2023/01/24 12:19:57;;;;;;;15.90;11.85;;;;;;;2.39;86.60;103025.88;5059596;28;20083;-80
2023/01/24 12:22:28;;;;;;;16.80;12.93;;;;;;;2.33;86.52;103016.59;5058312;28;20048;-79
2023/01/24 12:25:01;;;;;;;18.38;13.45;;;;;;;2.46;86.74;103023.94;5058979;28;20495;-79
2023/01/24 12:27:32;;;;;;;19.85;12.27;;;;;;;2.51;86.52;103016.91;5059841;28;20049;-80